Terminal Aerodrome Forecast
Issued by NWS

Home | Current Version | Previous Version | Text Only | Print | Product List | Glossary On
Versions: 1 2 3 4 5 6 7 8 9 10 11 12 13 14
000
FTUS44 KLIX 070846 AAA
TAFMCB
TAF AMD
KMCB 070846Z 0709/0806 00000KT 1SM BR VV009
      TEMPO 0710/0712 BKN005
     FM071300 19009KT P6SM SCT045
     FM080100 18005KT P6SM SCT250=

USA.gov is the U.S. government's official web portal to all federal, state and local government web resources and services.